Charlotte, NC (28209)

1:50 PM EST on December 18, 2014 (GMT -0500)
Midtown | Change Station
CLOSE
Current Station
Personal Weather Station
Location: Charlotte, NC
Elevation: 650 ft
Nearby Weather Stations

Elev 650 ft 35.21 °N, 80.84 °W | Updated 9 seconds ago

Partly Cloudy
Partly Cloudy
52.3 °F
Feels Like 52.3 °F
N
1.0
Wind Variable Wind from WNW
Gusts 1.0 mph

Today
High -- | Low -- °F
--% Chance of Precip.
Yesterday
High -- | Low -- °F
Precip. -- in
7:26 AM 5:13 PM
Waning Crescent, 13% visible
Pressure 30.14 in
Visibility 10.0 miles
Clouds Mostly Cloudy 8000 ft
Dew Point 26 °F
Humidity 36%
Rainfall 0.00 in
Snow Depth Not available.
UV 2 out of 12
Pollen 1.10 out of 12
Air Quality Not available.
Flu Activity Not available.
METAR KCLT 181752Z 00000KT 10SM BKN080 11/M05 A3013 RMK AO2 SLP204 T01061050 10111 20044 58022

More Conditions Fewer Conditions

Pressure 30.14 in
Visibility 10.0 miles
Clouds Mostly Cloudy 8000 ft
Dew Point 26 °F
Humidity 36%
Rainfall 0.00 in
Snow Depth Not available.
UV 2 out of 12
Pollen 1.10 out of 12
Air Quality Not available.
Flu Activity Not available.
METAR KCLT 181752Z 00000KT 10SM BKN080 11/M05 A3013 RMK AO2 SLP204 T01061050 10111 20044 58022

More Conditions Fewer Conditions

10-Day Weather Forecast

Almanac

Astronomy

Dec. 18, 2014 Rise Set
Actual Time
Civil Twilight
Nautical Twilight
Astronomical Twilight
Moon
Length of Visible Light
Length of Day
Tomorrow will be .
, % of the Moon is Illuminated

Today's Extremes

State Highs State Lows

Community

WunderPhotos

Upload Photos

1,778,973 photos uploaded!

WunderBlogs® & News

Nearby

Air Quality

  Air Quality AQ Index Pollutant
Not available.

Snow Depth

Station Depth Elevation

Earthquake Activity

City Distance Mag. Time & Date
Minimum magnitude displayed is 2.5.

Coastal Water Temperatures

Place Temperature

Nearby Weather Stations